Thunder radar more information blitzortung!


Löydät sääaseman tiedot myös:

European Weather Network

Finland Weather Exchange

Weather Underground

AWEKAS



Weather Underground säähistoriasivu

Päivittäin yhteenveto Heinäkuu 1, 2017 Yksiköt:  Englantilaiset    Metriset   Molemmat
« Edellinen Päivä
Seuraava Päivä »
Päivittäin Viikoittain Kuukausittain Vuosittain Mukautettu
  Korkea: Matala: Keskiarvo:
Lämpötila: TemperatureC °F 9.4 °F 17.8 °F
Kastepiste: DewpointC °F 6.9 °F 9.2 °F
Kosteus: Humidity % 36 % 59 %
Tuulen nopeus: WindSpeedKMH mph 0.0 mph 0.4 mph
Tuulenpuuska: WindSpeedGustKMH mph - -
Tuuli:- - SE
Ilmanpaine: PressurehPa in 1002.6 in -
Sade: 0.0 in    
Historical Graphs
 
 
Taulukkotiedot Heinäkuu 1, 2017
Aika Lämpötila Kastepiste Ilmanpaine Tuuli Tuulen nopeus Tuulenpuuska Kosteus Sademäärä (tunneittain)
TemperatureC °F DewpointC °F PressurehPa in Calm     Humidity % HourlyPrecipMM in
00:00 14.9 °F 8.6 °F 1007.3 in Calm     66 % 0.0 in
00:15 14.8 °F 8.5 °F 1007.3 in Calm     66 % 0.0 in
00:30 14.3 °F 8.2 °F 1007.0 in Calm     67 % 0.0 in
00:45 13.9 °F 8.1 °F 1007.3 in Calm     68 % 0.0 in
01:00 13.4 °F 8.1 °F 1007.3 in Calm     70 % 0.0 in
01:15 13.0 °F 7.9 °F 1007.0 in Calm     71 % 0.0 in
01:30 12.2 °F 7.9 °F 1007.0 in Calm   4.8 mph 75 % 0.0 in
01:45 11.7 °F 7.8 °F 1007.3 in Calm     77 % 0.0 in
02:00 11.4 °F 7.6 °F 1007.3 in Calm     77 % 0.0 in
02:15 11.3 °F 7.6 °F 1007.3 in Calm     78 % 0.0 in
02:30 11.2 °F 7.7 °F 1007.3 in Calm     79 % 0.0 in
02:45 11.1 °F 7.6 °F 1007.3 in Calm     79 % 0.0 in
03:00 10.9 °F 7.6 °F 1007.3 in Calm     80 % 0.0 in
03:15 10.7 °F 7.6 °F 1007.3 in Calm     81 % 0.0 in
03:30 10.6 °F 7.5 °F 1007.3 in Calm     81 % 0.0 in
03:45 10.4 °F 7.3 °F 1007.3 in Calm   1.6 mph 81 % 0.0 in
04:00 10.1 °F 7.2 °F 1007.3 in Calm     82 % 0.0 in
04:15 9.8 °F 7.0 °F 1007.3 in Calm     83 % 0.0 in
04:30 9.6 °F 7.0 °F 1007.3 in Calm     84 % 0.0 in
04:45 9.5 °F 6.9 °F 1007.3 in Calm     84 % 0.0 in
05:00 9.4 °F 6.9 °F 1007.3 in Calm     84 % 0.0 in
05:15 9.5 °F 7.1 °F 1007.0 in Calm     85 % 0.0 in
05:30 9.5 °F 7.1 °F 1007.0 in Calm     85 % 0.0 in
05:45 9.6 °F 7.2 °F 1007.0 in Calm     85 % 0.0 in
06:15 10.2 °F 7.8 °F 1007.0 in Calm     85 % 0.0 in
06:30 10.6 °F 7.8 °F 1007.0 in Calm   3.2 mph 83 % 0.0 in
06:45 10.9 °F 7.9 °F 1007.0 in Calm   1.6 mph 82 % 0.0 in
07:00 11.3 °F 8.2 °F 1007.0 in Calm   1.6 mph 81 % 0.0 in
07:15 11.8 °F 8.3 °F 1007.0 in Calm     79 % 0.0 in
07:30 12.3 °F 8.6 °F 1007.0 in Calm   3.2 mph 78 % 0.0 in
07:45 12.7 °F 9.0 °F 1007.0 in Calm     78 % 0.0 in
08:00 13.2 °F 9.2 °F 1007.0 in Calm   1.6 mph 77 % 0.0 in
08:15 13.7 °F 9.4 °F 1006.7 in Calm   1.6 mph 75 % 0.0 in
08:30 14.4 °F 9.9 °F 1006.7 in Calm   1.6 mph 74 % 0.0 in
08:45 15.6 °F 10.3 °F 1006.7 in Calm   3.2 mph 71 % 0.0 in
09:00 16.7 °F 10.5 °F 1006.7 in Calm   1.6 mph 67 % 0.0 in
09:15 17.8 °F 10.7 °F 1006.7 in Calm   1.6 mph 63 % 0.0 in
09:30 18.7 °F 10.7 °F 1006.3 in Calm   3.2 mph 60 % 0.0 in
09:45 19.1 °F 11.4 °F 1006.3 in Calm   1.6 mph 61 % 0.0 in
10:00 19.3 °F 11.6 °F 1006.3 in Calm   4.8 mph 61 % 0.0 in
10:15 19.7 °F 10.9 °F 1006.3 in WSW 1.6 mph 6.4 mph 57 % 0.0 in
10:30 20.0 °F 11.0 °F 1006.3 in Calm   3.2 mph 56 % 0.0 in
10:45 20.2 °F 10.6 °F 1006.0 in ESE 1.6 mph 9.7 mph 54 % 0.0 in
11:00 20.5 °F 11.1 °F 1006.0 in Calm   6.4 mph 55 % 0.0 in
11:15 20.9 °F 11.3 °F 1005.6 in Calm   3.2 mph 54 % 0.0 in
11:30 21.2 °F 10.1 °F 1005.6 in Calm   8.0 mph 49 % 0.0 in
11:45 21.7 °F 10.8 °F 1005.3 in Calm   8.0 mph 50 % 0.0 in
12:00 22.1 °F 11.1 °F 1005.3 in Calm   3.2 mph 50 % 0.0 in
12:15 22.3 °F 11.7 °F 1005.3 in Calm   3.2 mph 51 % 0.0 in
12:30 22.3 °F 11.1 °F 1005.0 in Calm   6.4 mph 49 % 0.0 in
12:45 22.3 °F 10.5 °F 1005.0 in Calm   4.8 mph 47 % 0.0 in
13:00 22.7 °F 11.4 °F 1005.0 in Calm   4.8 mph 49 % 0.0 in
13:15 22.9 °F 10.0 °F 1005.0 in NE 1.6 mph 9.7 mph 44 % 0.0 in
13:30 23.1 °F 10.5 °F 1004.6 in Calm   11.3 mph 45 % 0.0 in
13:45 23.3 °F 10.3 °F 1004.6 in NNW 1.6 mph 6.4 mph 44 % 0.0 in
14:00 23.3 °F 11.7 °F 1004.6 in Calm   4.8 mph 48 % 0.0 in
14:15 23.7 °F 9.6 °F 1004.6 in NNE 1.6 mph 11.3 mph 41 % 0.0 in
14:30 24.1 °F 8.9 °F 1004.6 in WNW 1.6 mph 9.7 mph 38 % 0.0 in
14:45 24.1 °F 10.0 °F 1004.3 in ENE 1.6 mph 8.0 mph 41 % 0.0 in
15:00 24.1 °F 10.0 °F 1004.3 in West 1.6 mph 11.3 mph 41 % 0.0 in
15:15 24.4 °F 9.1 °F 1003.9 in West 1.6 mph 8.0 mph 38 % 0.0 in
15:30 24.6 °F 10.1 °F 1003.9 in NNE 1.6 mph 11.3 mph 40 % 0.0 in
15:45 24.6 °F 10.1 °F 1003.9 in East 1.6 mph 9.7 mph 40 % 0.0 in
16:00 24.4 °F 8.8 °F 1003.6 in Calm   8.0 mph 37 % 0.0 in
16:15 24.4 °F 9.9 °F 1003.6 in North 1.6 mph 11.3 mph 40 % 0.0 in
16:30 24.5 °F 10.7 °F 1003.6 in SE 1.6 mph 8.0 mph 42 % 0.0 in
16:45 24.5 °F 8.4 °F 1003.3 in NW 1.6 mph 9.7 mph 36 % 0.0 in
17:00 24.4 °F 8.8 °F 1003.3 in SE 1.6 mph 9.7 mph 37 % 0.0 in
17:30 24.3 °F 9.8 °F 1002.9 in SE 1.6 mph 11.3 mph 40 % 0.0 in
17:45 24.5 °F 10.0 °F 1002.9 in South 1.6 mph 6.4 mph 40 % 0.0 in
18:00 24.4 °F 9.9 °F 1002.9 in NNE 1.6 mph 4.8 mph 40 % 0.0 in
18:15 24.2 °F 9.7 °F 1002.9 in Calm   6.4 mph 40 % 0.0 in
18:30 24.2 °F 10.5 °F 1002.9 in Calm   6.4 mph 42 % 0.0 in
18:45 24.0 °F 9.2 °F 1002.9 in East 1.6 mph 8.0 mph 39 % 0.0 in
19:00 23.8 °F 9.8 °F 1002.9 in East 1.6 mph 6.4 mph 41 % 0.0 in
19:15 23.5 °F 9.1 °F 1002.9 in ENE 1.6 mph 9.7 mph 40 % 0.0 in
19:30 23.4 °F 8.6 °F 1002.9 in SE 1.6 mph 11.3 mph 39 % 0.0 in
19:45 23.3 °F 10.3 °F 1002.6 in Calm   4.8 mph 44 % 0.0 in
20:00 22.9 °F 9.3 °F 1002.6 in Calm   8.0 mph 42 % 0.0 in
20:15 22.6 °F 8.7 °F 1002.6 in Calm   9.7 mph 41 % 0.0 in
20:30 22.1 °F 9.2 °F 1002.9 in Calm   6.4 mph 44 % 0.0 in
20:45 21.6 °F 9.5 °F 1002.6 in Calm   8.0 mph 46 % 0.0 in
21:00 21.2 °F 10.0 °F 1002.6 in Calm   3.2 mph 49 % 0.0 in
21:15 20.7 °F 10.2 °F 1002.6 in Calm   4.8 mph 51 % 0.0 in
21:30 20.2 °F 10.3 °F 1002.6 in Calm   3.2 mph 53 % 0.0 in
21:45 19.8 °F 9.9 °F 1002.6 in Calm     53 % 0.0 in
22:00 19.4 °F 10.2 °F 1002.6 in Calm     55 % 0.0 in
22:15 19.0 °F 10.3 °F 1002.9 in Calm     57 % 0.0 in
22:30 18.6 °F 10.4 °F 1002.9 in Calm     59 % 0.0 in
22:45 18.1 °F 10.2 °F 1002.9 in Calm     60 % 0.0 in
23:00 17.7 °F 10.6 °F 1002.9 in Calm     63 % 0.0 in
23:15 16.9 °F 10.5 °F 1002.9 in Calm     66 % 0.0 in
23:30 16.0 °F 10.5 °F 1003.3 in Calm     70 % 0.0 in
23:45 15.1 °F 10.0 °F 1003.3 in Calm     72 % 0.0 in
Esan sääasema
Terveisin Weather Underground - 2.75 mb

Alkuperäinen skripti  Jim McMurry - jmcmurry@mwt.net Sovitettu myös templatelle  Wim van der Kuil - Leuven-Template.eu

Laitteet joita käytämme:

Sääasema
Davis VP2

Sääasemaohjelma
Cumulus

Sääaseman tietokone
Asus EeePC

Palveluntarjoaja
Suncomet

Davis VP2

Cumulus

Asus EeePC

Suncomet